Weather observations for the past three days for
Cassidy International Airport
Imperial (Metric)
Date Time (+14) Wind (mph) Vis. (mi.) Weather Sky Cond. Temperature (ºF) Relative Humidity Wind Chill (°F) Heat Index (°F) Pressure Precipitation (in)
Air Dwpt 6 hour altimeter (in) sea level (mb) 1 hr 3 hr 6 hr
Max. Min.
06 00:00 E 7 0.00 A Few Clouds FEW020 82.4 77 84% 91 0 0.0
05 23:00 E 7 0.00 A Few Clouds FEW019 82.4 77 84% 91 0 0.0
05 22:00 E 7 0.00 Partly Cloudy SCT019 82.4 77 84% 91 0 0.0
05 21:00 E 6 0.00 A Few Clouds FEW019 82.4 77 84% 91 0 0.0
05 20:00 E 6 0.00 A Few Clouds FEW020 82.4 77 84% 91 0 0.0
05 19:00 E 7 0.00 Partly Cloudy SCT019 84.2 77 79% 94 0 0.0
05 18:00 E 8 0.00 A Few Clouds FEW019 84.2 77 79% 94 0 0.0
05 17:00 E 7 0.00 Partly Cloudy SCT019 SCT300 86 77 75% 97 0 0.0
05 16:00 E 8 0.00 Partly Cloudy SCT019 SCT300 86 77 75% 97 0 0.0
05 15:00 E 6 0.00 A Few Clouds FEW020 86 78.8 79% 99 0 0.0
05 14:00 E 9 0.00 A Few Clouds FEW020 87.8 75.2 66% 98 0 0.0
05 13:00 E 7 0.00 Partly Cloudy FEW020 SCT300 89.6 77 67% 103 0 0.0
05 12:00 E 7 0.00 A Few Clouds FEW020 89.6 77 67% 103 0 0.0
05 11:00 E 7 0.00 Partly Cloudy SCT019 89.6 77 67% 103 0 0.0
05 10:00 E 5 0.00 Partly Cloudy SCT019 86 77 75% 97 0 0.0
05 09:00 E 5 0.00 Partly Cloudy SCT019 86 77 75% 97 0 0.0
05 08:00 E 5 0.00 Partly Cloudy FEW019 SCT300 82.4 75.2 79% 89 0 0.0
05 07:00 Vrbl 2 0.00 Partly Cloudy FEW019 SCT300 80.6 75.2 84% 86 0 0.0
05 06:00 Vrbl 2 0.00 A Few Clouds FEW019 80.6 75.2 84% 86 0 0.0
05 05:00 Vrbl 2 0.00 Partly Cloudy SCT019 80.6 77 89% 87 0 0.0
05 04:00 E 3 0.00 A Few Clouds FEW019 80.6 75.2 84% 86 0 0.0
05 03:00 Vrbl 2 0.00 A Few Clouds FEW019 78.8 77 94% 83 0 0.0
05 00:00 Vrbl 2 0.00 Partly Cloudy FEW019 SCT300 80.6 75.2 84% 86 0 0.0
04 23:00 E 5 0.00 Mostly Cloudy FEW019 BKN300 82.4 77 84% 91 0 0.0
04 22:00 E 3 0.00 Partly Cloudy FEW019 SCT300 82.4 77 84% 91 0 0.0
04 21:00 E 3 0.00 Partly Cloudy FEW019 SCT300 82.4 77 84% 91 0 0.0
04 20:00 E 3 0.00 Partly Cloudy FEW019 SCT300 82.4 77 84% 91 0 0.0
04 19:00 E 5 0.00 Partly Cloudy FEW019 SCT300 84.2 77 79% 94 0 0.0
04 18:00 E 6 0.00 Mostly Cloudy FEW019 BKN300 84.2 77 79% 94 0 0.0
04 17:00 E 8 0.00 Mostly Cloudy FEW019 BKN300 86 77 75% 97 0 0.0
04 16:00 E 7 0.00 Mostly Cloudy FEW019 BKN300 86 77 75% 97 0 0.0
04 15:00 E 7 0.00 Mostly Cloudy FEW019 BKN300 89.6 77 67% 103 0 0.0
04 14:00 E 7 0.00 Mostly Cloudy FEW019 BKN300 89.6 77 67% 103 0 0.0
04 13:00 E 8 0.00 Mostly Cloudy FEW019 BKN300 89.6 78.8 71% 105 0 0.0
04 12:00 E 6 0.00 Mostly Cloudy FEW019 BKN300 87.8 77 70% 100 0 0.0
04 11:00 E 7 0.00 Partly Cloudy FEW018TCU SCT100 86 77 75% 97 0 0.0
04 10:00 E 6 0.00 Mostly Cloudy FEW019 BKN300 86 77 75% 97 0 0.0
04 09:00 E 6 0.00 Mostly Cloudy FEW019 BKN300 86 77 75% 97 0 0.0
04 08:00 E 5 0.00 Partly Cloudy FEW019 SCT300 84.2 77 79% 94 0 0.0
04 07:00 Vrbl 1 0.00 Mostly Cloudy FEW020 BKN300 80.6 77 89% 87 0 0.0
04 06:00 Calm 0.00 Partly Cloudy FEW020 SCT300 77 77 100% 78 0 0.0
04 05:00 Vrbl 1 0.00 Partly Cloudy FEW020 SCT300 78.8 77 94% 83 0 0.0
04 04:00 Vrbl 2 0.00 A Few Clouds FEW020 80.6 77 89% 87 0 0.0
04 03:00 Vrbl 2 0.00 A Few Clouds FEW020 80.6 77 89% 87 0 0.0
04 02:00 Vrbl 2 0.00 A Few Clouds FEW020 80.6 77 89% 87 0 0.0
04 01:00 Vrbl 1 0.00 A Few Clouds FEW020 82.4 77 84% 91 0 0.0
04 00:00 Vrbl 2 0.00 NULL NULL 82.4 77 84% 91 0 0.0
03 23:00 Vrbl 2 0.00 A Few Clouds FEW019 82.4 77 84% 91 0 0.0
03 22:00 Vrbl 2 0.00 A Few Clouds FEW019 82.4 77 84% 91 0 0.0
03 21:00 E 3 0.00 A Few Clouds FEW019 82.4 77 84% 91 0 0.0
03 20:00 Vrbl 2 0.00 A Few Clouds FEW019 82.4 77 84% 91 0 0.0
03 19:00 E 3 0.00 A Few Clouds FEW020 84.2 77 79% 94 0 0.0
03 18:00 E 6 0.00 Partly Cloudy SCT019 86 78.8 79% 99 0 0.0
03 17:00 E 7 0.00 Partly Cloudy FEW018TCU SCT019 86 80.6 84% 102 0 0.0
03 16:00 E 7 0.00 A Few Clouds FEW019 89.6 77 67% 103 0 0.0
03 15:00 E 8 0.00 Partly Cloudy SCT019 89.6 78.8 71% 105 0 0.0
03 14:00 E 7 0.00 A Few Clouds FEW019 89.6 78.8 71% 105 0 0.0
03 13:00 E 9 0.00 Partly Cloudy SCT019 87.8 77 70% 100 0 0.0
03 12:00 E 8 0.00 A Few Clouds FEW019 87.8 77 70% 100 0 0.0
03 11:00 E 7 0.00 A Few Clouds FEW019 87.8 78.8 75% 102 0 0.0
03 09:00 E 6 0.00 A Few Clouds FEW019 86 78.8 79% 99 0 0.0
03 08:00 E 6 0.00 Partly Cloudy SCT019 84.2 77 79% 94 0 0.0
03 07:00 E 5 0.00 Partly Cloudy FEW020 SCT040 82.4 77 84% 91 0 0.0
03 06:00 Vrbl 2 0.00 A Few Clouds FEW020 80.6 77 89% 87 0 0.0
03 05:00 E 3 0.00 A Few Clouds FEW020 82.4 77 84% 91 0 0.0
03 04:00 Vrbl 2 0.00 A Few Clouds FEW020 80.6 77 89% 87 0 0.0
03 03:00 Vrbl 2 0.00 A Few Clouds FEW020 82.4 78.8 89% 92 0 0.0
03 02:00 E 3 0.00 A Few Clouds FEW018TCU 82.4 78.8 89% 92 0 0.0
03 01:00 Vrbl 2 0.00 A Few Clouds FEW020 82.4 77 84% 91 0 0.0
Date Time (+14) Wind (mph) Vis. (mi.) Weather Sky Cond. Air Dwpt Max. Min. Relative Humidity Wind Chill (°F) Heat Index (°F) altimeter (in) sea level (mb) 1 hr 3 hr 6 hr
6 hour
Temperature (ºF) Pressure Precipitation (in)